METAR

ENBN 031620Z 35012KT 320V020 9999 -DZ FEW030 BKN060 10/06 Q1010

ENMS 031620Z 34005KT 310V030 CAVOK 14/04 Q1010 RMK WIND 412FT VRB02KT

ENNM 031550Z 20003KT 9999 -RA FEW015 SCT035 BKN055 10/08 Q1009

ENOL 031620Z 01010KT 9999 FEW009 SCT025 BKN050 11/08 Q1008 TEMPO SHRA BKN014 SCT020CB

ENST 031620Z 02014KT CAVOK 11/04 Q1011 RMK WIND 300FT 04012KT

ENVA 031620Z 25007KT 9999 FEW019 BKN037 13/10 Q1008 NOSIG RMK WIND 670FT VRB02KT



TAF

TAF ENVA 031100Z 0312/0412 VRB05KT 9999 -SHRA SCT012TCU BKN018 PROB40 TEMPO 0312/0315 BKN012 PROB40 TEMPO 0316/0401 4000 TSRA BKN012CB BECMG 0410/0412 16015G25KT